Olathe, KS

5:08 AM CST on December 21, 2014 (GMT -0600)
Johnson County Executive | Change Station
CLOSE
Current Station
Airport
Location: Olathe,
Elevation: 1096 ft
Nearby Weather Stations

Elev 1096 ft 38.85 °N, 94.74 °W | Updated 15 minutes ago

Overcast
Overcast
36 °F
Feels Like 30 °F
N
7
Wind Variable Wind from South

Today
High -- | Low -- °F
--% Chance of Precip.
Yesterday
High -- | Low -- °F
Precip. -- in
7:34 AM 5:00 PM
Waning Crescent, 0% visible
Pressure 30.08 in
Visibility 4.0 miles
Clouds Overcast 900 ft
Windchill 30 °F
Dew Point 35 °F
Humidity 97%
Rainfall 0.00 in
Snow Depth Not available.
UV 0 out of 12
Pollen .10 out of 12
Air Quality Not available.
Flu Activity Not available.
METAR KOJC 211053Z AUTO 19006KT 4SM BR OVC009 02/02 A3006 RMK AO2 CIG 008V012 SLP186 T00220017

More Conditions Fewer Conditions

Pressure 30.08 in
Visibility 4.0 miles
Clouds Overcast 900 ft
Windchill 30 °F
Dew Point 35 °F
Humidity 97%
Rainfall 0.00 in
Snow Depth Not available.
UV 0 out of 12
Pollen .10 out of 12
Air Quality Not available.
Flu Activity Not available.
METAR KOJC 211053Z AUTO 19006KT 4SM BR OVC009 02/02 A3006 RMK AO2 CIG 008V012 SLP186 T00220017

More Conditions Fewer Conditions

10-Day Weather Forecast

Almanac

Astronomy

Dec. 21, 2014 Rise Set
Actual Time
Civil Twilight
Nautical Twilight
Astronomical Twilight
Moon
Length of Visible Light
Length of Day
Tomorrow will be .
, % of the Moon is Illuminated

Today's Extremes

State Highs State Lows

Community

WunderPhotos

Upload Photos

1,779,367 photos uploaded!

WunderBlogs® & News

Nearby

Air Quality

  Air Quality AQ Index Pollutant
Not available.

Snow Depth

Station Depth Elevation

Earthquake Activity

City Distance Mag. Time & Date
Minimum magnitude displayed is 2.5.

Coastal Water Temperatures

Place Temperature

Nearby Weather Stations